Jogging Pour Tous
Remonter
Résultats 2014
Résultats 2013
Résultats 2012
Résultats 2011
Résultats 2010
Résultats 2009
Résultats 2008
Résultats 2007
Résultats 2006
Résultats 2005
Résultats 2004
Résultats 2003

 

29ème Edition des Boucles Du Djale

Samedi 21 mars 2015

Course A - 1,8 km

Course B - 3,2 km

Course C - 10 km

Course A - 1,8 km
 
Position Dossard Nom Prénom Temps Filles Garçons Points Club Temps au km Km/h
1 362 VAN DER HEYDEN AUBRY 00:06:56 1 1000 00:03:51 15,58
2 173 KALIN LIONEL 00:07:00 2 947 00:03:53 15,43
3 861 VEREECKEN SIMON 00:07:17 3 895 OUPEYE ATHLETISME 00:04:03 14,83
4 837 BRUGGEN CLEMENT 00:07:24 4 842 OUPEYE ATHLETISME 00:04:07 14,59
5 870 COMPERE MATHIS 00:07:30 5 789 OUPEYE ATHLETISME 00:04:10 14,40
6 899 BALBOURG AUDRIC 00:07:45 6 737 00:04:18 13,94
7 801 BINET AMANDINE 00:07:46 1 684 HERVE 00:04:19 13,91
8 87 DE ROECK ANTHONY 00:07:58 7 632 RFCL 00:04:26 13,56
9 867 POSSEM CLARISSE 00:08:00 2 579 OUPEYE ATHLETISME 00:04:27 13,50
10 863 SAVELBERG EMA 00:08:06 3 526 OUPEYE ATHLETISME 00:04:30 13,33
11 67 COUDIJZER ARNAUD 00:08:12 8 474 CSM 00:04:33 13,17
12 868 BEWALLEF TIM 00:08:16 9 421 TCBM 00:04:36 13,06
13 190 LEMAIRE SACHA 00:08:20 10 368 CSM 00:04:38 12,96
14 846 FARSSI MAJDA 00:08:37 4 316 00:04:47 12,53
15 803 HENDRIKS XAVIER 00:09:11 11 263 RFCL OUPEYE 00:05:06 11,76
16 897 KUS RAHFET 00:09:49 12 211 00:05:27 11,00
17 871 DEWIT MAUGAN 00:10:05 13 158 00:05:36 10,71
18 836 KLIPPERT CLAIRE 00:10:06 5 105 OUPEYE ATHLETISME 00:05:37 10,69
19 372 JAMIN AMANDINE 00:14:09 6 53 00:07:52 7,63
20 892 JIMENEZ LUNE 00:18:12 0 00:10:07 5,93
 
Course B - 3,2 km
 
Position Dossard Nom Prénom Temps Garçons Filles Déb H. Déb F. Points Club Temps au km Km/h
1 839 DEFRAIGNE VINCENT 00:11:26 ....... 1 ....... ....... 1000 OUPEYE ATHLETISME 00:03:34 16,79
2 809 FAUCONNIER SEBASTIEN 00:11:43 ....... 2 ....... ....... 960 OUPEYE ATHLETISME 00:03:40 16,39
3 86 DE HEY BENJAMIN 00:11:48 ....... 3 ....... ....... 920 HF 00:03:41 16,27
4 127 FRISSCHEN GILLES 00:11:55 ....... 4 ....... ....... 880 HERVE 00:03:43 16,11
5 880 HENSENNE LIAM 00:12:08 ....... 5 ....... ....... 840 OUPEYE ATHLETISME 00:03:48 15,82
6 862 VEREECKEN HUGO 00:12:32 ....... 6 ....... ....... 800 OUPEYE ATHLETISME 00:03:55 15,32
7 874 HERMESSE JEROME 00:12:33 ....... ....... 1 ....... ....... 00:03:55 15,30
8 896 CHAMBRESIER MAXIME 00:12:45 ....... 7 ....... ....... 760 OUPEYE ATHLETISME 00:03:59 15,06
9 888 DAUIBIOUL FLORENT 00:12:49 ....... 8 ....... ....... 720 OUPEYE ATHLETISME 00:04:00 14,98
10 893 DEWALLEF NOA 00:13:28 ....... 9 ....... ....... 680 TCBM 00:04:13 14,26
11 148 HAMIOT FLORIAN 00:13:31 ....... 10 ....... ....... 640 HAUTES FAGNES 00:04:13 14,20
12 890 MUYLKENS ARMELLE 00:13:52 1 ....... ....... ....... 600 HERVE 00:04:20 13,85
13 876 SMYDERS ARTHUR 00:14:00 ....... ....... 2 ....... ....... COPENHAGUE 00:04:23 13,71
14 807 FRATAMICO LUCA 00:14:26 ....... ....... 3 ....... ....... TCBM 00:04:31 13,30
15 844 CLAES THIBAULT 00:14:32 ....... 11 ....... ....... 560 ST GEORGES SUR MEUSE 00:04:32 13,21
16 811 SERET SYLVAIN 00:14:38 ....... 12 ....... ....... 520 ST GEORGES ATHLETISME 00:04:34 13,12
17 838 BRUGGEN CLARA 00:14:43 2 ....... ....... ....... 480 OUPEYE ATHLETISME 00:04:36 13,05
18 323 COUQUELET GAUTHIER 00:14:47 ....... 13 ....... ....... 440 00:04:37 12,99
19 71 COUQUELET DIEUDONNE 00:14:48 ....... ....... 4 ....... ....... 00:04:37 12,97
20 810 ORY CEDRIC 00:15:03 ....... 14 ....... ....... 400 TCBM 00:04:42 12,76
21 902 PALOMBO NICOLAS 00:15:42 ....... ....... 5 ....... ....... 00:04:54 12,23
22 802 HENDRIKS PIERRE 00:15:47 ....... 15 ....... ....... 360 RFCL OUPEYE 00:04:56 12,16
23 951 DEVRAGE JEREMY 00:15:56 ....... 16 ....... ....... 320 00:04:59 12,05
24 843 CLAES THOMAS 00:16:10 ....... 17 ....... ....... 280 ST GEORGES SUR MEUSE 00:05:03 11,88
25 903 HOCKERS ANAIS 00:16:10 3 ....... ....... ....... 240 OUPEYE ATHLETISME 00:05:03 11,88
26 847 FARSSI DOUNIA 00:17:15 ....... ....... ....... 1 ....... 00:05:23 11,13
27 877 GILSON MELODIE 00:17:43 ....... ....... ....... 2 ....... VOTTEM 00:05:32 10,84
28 168 JEMINE CATHERINE 00:17:46 ....... ....... ....... 3 ....... RCAE 00:05:33 10,81
29 72 COUQUELET MAXIME 00:17:47 ....... 18 ....... ....... 200 00:05:33 10,80
30 260 VAN LAETHEM GABRIELLE 00:17:50 ....... ....... ....... 4 ....... 00:05:34 10,77
31 62 COLLE JEAN FRAN?OIS 00:18:20 ....... ....... 6 ....... ....... RDV RUN 00:05:44 10,47
32 374 MARINO DAMIEN 00:18:21 ....... 19 ....... ....... 160 00:05:44 10,46
33 218 DETRY MARIE-FRANCE 00:18:24 ....... ....... ....... 5 ....... HERVE 00:05:45 10,43
34 18 BAUMANS JOHAN 00:18:31 ....... 20 ....... ....... 120 RUNASTOCK 00:05:47 10,37
35 845 CLEMENT CHARLOTTE 00:18:48 ....... ....... ....... 6 ....... 00:05:53 10,21
36 848 LEJEUNE BRYAN 00:19:07 4 ....... ....... ....... 80 RUNASTOCK 00:05:58 10,04
37 808 GOFFOY LAURIE 00:19:07 ....... ....... ....... 7 ....... 00:05:58 10,04
38 337 DELVAUX LAURA 00:19:17 ....... ....... ....... 8 ....... 00:06:02 9,96
39 853 SOOLS EMILIE 00:19:17 5 ....... ....... ....... 40 00:06:02 9,96
40 835 MOUSSAID KAYLA 00:19:37 ....... ....... ....... ....... ....... 00:06:08 9,79
41 834 BRANCATO FANNY 00:19:47 ....... ....... ....... ....... ....... 00:06:11 9,71
42 805 VICKEVORST PATRICIA 00:22:54 ....... ....... ....... 9 ....... 00:07:09 8,38
43 878 STRUZIK DELPHINE 00:23:42 ....... ....... ....... 10 ....... JOG IN ATTITUDE 00:07:24 8,10
44 289 MEYERS V?RONIQUE 00:24:08 ....... ....... ....... 11 ....... 00:07:32 7,96
45 15 BALTUS CHRISTIANE 00:25:45 ....... ....... ....... ....... ....... 00:08:03 7,46
46 296 SAPION KRISTEL 00:28:36 ....... ....... ....... 13 ....... 00:08:56 6,71
 
Course C - 10 km
 
Position Dossard Nom Prénom Temps Esp.H Séniors Vétér.I Vétér.II Vétér.III Esp.D Dames Ainées I Ainées II Ainées III Points Club Temps au km Km/h
1 906 WALLISCH THOMAS 00:32:54 ....... 1 ....... ....... ....... ....... ....... ....... ....... ....... 1000 FAC JOGGING 00:03:17 18,24
2 914 ESSABRI YOANN 00:34:17 ....... 2 ....... ....... ....... ....... ....... ....... ....... ....... 996 SER ATHL 00:03:26 17,50
3 322 VRANCKEN JO 00:34:30 ....... 3 ....... ....... ....... ....... ....... ....... ....... ....... 993 MJ SPORT 00:03:27 17,39
4 857 RODRIGUEZ LOIC 00:34:56 ....... 4 ....... ....... ....... ....... ....... ....... ....... ....... 989 FAC 00:03:30 17,18
5 247 TILKIN JULIEN 00:35:21 ....... 5 ....... ....... ....... ....... ....... ....... ....... ....... 986 00:03:32 16,97
6 953 FREMALLE BENOIT 00:35:27 ....... 6 ....... ....... ....... ....... ....... ....... ....... ....... 982 TRIATHLIEGE 00:03:33 16,93
7 915 SANFILIPPO SALVATORE 00:35:43 ....... ....... 1 ....... ....... ....... ....... ....... ....... ....... 978 SER ATHL 00:03:34 16,80
8 277 CABO REGUERA FRANCISCO 00:35:59 ....... ....... 2 ....... ....... ....... ....... ....... ....... ....... 975 SER ATHL 00:03:36 16,67
9 110 DOYEN DAVID 00:36:03 ....... ....... 3 ....... ....... ....... ....... ....... ....... ....... 971 SER ATHL 00:03:36 16,64
10 1002 LEKEU PIERRE 00:36:47 1 ....... ....... ....... ....... ....... ....... ....... ....... ....... 967 OUPEYE 00:03:41 16,31
11 215 MINY OLIVIER 00:36:59 ....... 7 ....... ....... ....... ....... ....... ....... ....... ....... 964 JOG IN ATTITUDE 00:03:42 16,22
12 855 LOGNOUL FABIEN 00:37:05 ....... ....... 4 ....... ....... ....... ....... ....... ....... ....... 960 RFCL 00:03:43 16,18
13 1008 LAMOLINE GUILLAUME 00:37:47 ....... 8 ....... ....... ....... ....... ....... ....... ....... ....... 957 00:03:47 15,88
14 224 NIHANT FLORENT 00:37:48 2 ....... ....... ....... ....... ....... ....... ....... ....... ....... 953 FNJC 00:03:47 15,87
15 145 GUISSART ALAIN 00:38:01 ....... ....... 5 ....... ....... ....... ....... ....... ....... ....... 949 00:03:48 15,78
16 10 DEBRA DANIEL 00:38:12 ....... ....... 6 ....... ....... ....... ....... ....... ....... ....... 946 00:03:49 15,71
17 133 GARIN YVES 00:38:27 ....... ....... 7 ....... ....... ....... ....... ....... ....... ....... 942 SER ATHL 00:03:51 15,60
18 56 CHRISTODOUL?AS PATRICK 00:38:29 ....... ....... ....... 1 ....... ....... ....... ....... ....... ....... 938 JOG IN ATTITUDE 00:03:51 15,59
19 1053 NICOLAY PIERRE 00:38:35 ....... ....... 8 ....... ....... ....... ....... ....... ....... ....... 935 00:03:52 15,55
20 180 LAMBERTY HELORI 00:39:04 ....... 9 ....... ....... ....... ....... ....... ....... ....... ....... 931 SER ATHL 00:03:54 15,36
21 116 EVRARD JEAN-PIERRE 00:39:05 ....... ....... 9 ....... ....... ....... ....... ....... ....... ....... 928 JOG IN ATTITUDE 00:03:55 15,35
22 932 PATUREAU ERIC 00:39:12 ....... 10 ....... ....... ....... ....... ....... ....... ....... ....... 924 AMICALE UC 00:03:55 15,31
23 95 DERKENNE OLIVIER 00:39:13 ....... ....... 10 ....... ....... ....... ....... ....... ....... ....... 920 00:03:55 15,30
24 329 VANDERBEUKEN STIJN 00:39:19 ....... 11 ....... ....... ....... ....... ....... ....... ....... ....... 917 PALUKO 00:03:56 15,26
25 849 BOUGHALAB MOHAMED 00:39:27 3 ....... ....... ....... ....... ....... ....... ....... ....... ....... 913 00:03:57 15,21
26 187 LEHANCE PASCAL 00:39:30 ....... ....... 11 ....... ....... ....... ....... ....... ....... ....... 909 RFCL 00:03:57 15,19
27 905 DI VINCENZO GIUSEPPE 00:39:31 ....... ....... ....... 2 ....... ....... ....... ....... ....... ....... 906 SER ATHL 00:03:57 15,18
28 142 GRAINDORGE ERIC 00:39:47 ....... ....... ....... 3 ....... ....... ....... ....... ....... ....... 902 TDCH 00:03:59 15,08
29 883 WAGELMANS CLARISSE 00:39:59 ....... ....... ....... ....... ....... ....... 1 ....... ....... ....... 899 RFCL JOGGING + 00:04:00 15,01
30 79 DAEMS MATHIEU 00:40:00 ....... 12 ....... ....... ....... ....... ....... ....... ....... ....... 895 00:04:00 15,00
31 910 BARTHOLOME JUAN 00:40:06 ....... 13 ....... ....... ....... ....... ....... ....... ....... ....... 891 00:04:01 14,96
32 923 VANDENBROUCK STEPHAN 00:40:30 ....... ....... 12 ....... ....... ....... ....... ....... ....... ....... 888 JOG IN ATTITUDE 00:04:03 14,81
33 987 BOSMANS ERIC 00:40:35 ....... ....... 13 ....... ....... ....... ....... ....... ....... ....... 884 JOGGING CLUB HERSTAL 00:04:04 14,78
34 363 DEGHAYE BERNARD 00:40:44 ....... ....... 14 ....... ....... ....... ....... ....... ....... ....... 880 00:04:04 14,73
35 189 LELOUP PASCAL 00:40:50 ....... ....... 15 ....... ....... ....... ....... ....... ....... ....... 877 SER ATHL 00:04:05 14,69
36 961 DIPEDE DOMINIQUE 00:41:06 ....... ....... 16 ....... ....... ....... ....... ....... ....... ....... 873 00:04:07 14,60
37 252 TROMME EMMANUEL 00:41:07 ....... 14 ....... ....... ....... ....... ....... ....... ....... ....... 870 00:04:07 14,59
38 198 MABILLE GEORGES 00:41:16 ....... ....... ....... 4 ....... ....... ....... ....... ....... ....... 866 JOG IN ATTITUDE 00:04:08 14,54
39 31 CHUDYBA JEAN-MARIE 00:41:17 ....... ....... 17 ....... ....... ....... ....... ....... ....... ....... 862 JOG IN ATTITUDE 00:04:08 14,53
40 887 PAQUOT MICHEL 00:41:19 ....... 15 ....... ....... ....... ....... ....... ....... ....... ....... 859 SERAING ATHLETISME 00:04:08 14,52
41 1074 SMOECK CLAUDE 00:41:21 ....... 16 ....... ....... ....... ....... ....... ....... ....... ....... 855 00:04:08 14,51
42 223 NIHANT FABIAN 00:41:34 ....... ....... 18 ....... ....... ....... ....... ....... ....... ....... 851 FNJC 00:04:09 14,43
43 348 BOLLEN PASCAL 00:41:50 ....... ....... ....... 5 ....... ....... ....... ....... ....... ....... 848 00:04:11 14,34
44 291 ROUFOSSE JOEFREY 00:41:53 ....... ....... ....... 6 ....... ....... ....... ....... ....... ....... 844 00:04:11 14,33
45 285 RIGO MICHEL 00:41:56 ....... ....... 19 ....... ....... ....... ....... ....... ....... ....... 841 00:04:12 14,31
46 927 KEYDENER CHRISTIAN 00:42:00 ....... ....... 20 ....... ....... ....... ....... ....... ....... ....... 837 00:04:12 14,29
47 946 GUCKEL IRWIN 00:42:04 ....... ....... 21 ....... ....... ....... ....... ....... ....... ....... 833 TCBM 00:04:12 14,26
48 298 SIRAULT RUDY 00:42:16 ....... 17 ....... ....... ....... ....... ....... ....... ....... ....... 830 HUY ATHLETIC CLUC 00:04:14 14,20
49 59 CLAES BENNY 00:42:18 ....... ....... ....... 7 ....... ....... ....... ....... ....... ....... 826 AC ALKEN 00:04:14 14,18
50 1073 LONCELLOTTI JULIEN 00:42:22 ....... 18 ....... ....... ....... ....... ....... ....... ....... ....... 822 00:04:14 14,16
51 964 VERDIN FRED 00:42:25 ....... 19 ....... ....... ....... ....... ....... ....... ....... ....... 819 00:04:15 14,15
52 931 VANBRUMMELEN CLEMENT 00:42:27 4 ....... ....... ....... ....... ....... ....... ....... ....... ....... 815 TCBM 00:04:15 14,13
53 1042 EURARD MARC 00:42:32 ....... ....... 22 ....... ....... ....... ....... ....... ....... ....... 812 JOG IN ATTITUDE 00:04:15 14,11
54 17 BAUMANS BENOIT 00:42:34 ....... ....... 23 ....... ....... ....... ....... ....... ....... ....... 808 RUNASTOCK 00:04:15 14,10
55 153 HENRY RICHARD 00:43:14 ....... ....... ....... 8 ....... ....... ....... ....... ....... ....... 804 00:04:19 13,88
56 208 RAES GUY 00:43:19 ....... ....... ....... ....... 1 ....... ....... ....... ....... ....... 801 SER ATHL 00:04:20 13,85
57 135 GHEURY PHILIPPE 00:43:21 ....... ....... 24 ....... ....... ....... ....... ....... ....... ....... 797 SER ATHL 00:04:20 13,84
58 5 MATHOT RICHARD 00:43:30 ....... ....... ....... ....... 2 ....... ....... ....... ....... ....... 793 LBC 00:04:21 13,79
59 926 VAN TOMME YVES 00:43:33 ....... ....... ....... 9 ....... ....... ....... ....... ....... ....... 790 00:04:21 13,78
60 1072 LECOQ JEAN PIERRE 00:43:35 ....... ....... 25 ....... ....... ....... ....... ....... ....... ....... 786 JIA 00:04:22 13,77
61 984 JOIRIS JOSEPH 00:43:43 ....... ....... 26 ....... ....... ....... ....... ....... ....... ....... 783 00:04:22 13,72
62 930 COLLEYE MICHAEL 00:43:47 ....... ....... 27 ....... ....... ....... ....... ....... ....... ....... 779 HST 00:04:23 13,70
63 217 RIHON PAUL 00:43:50 ....... ....... ....... 10 ....... ....... ....... ....... ....... ....... 775 FL?MALLE 00:04:23 13,69
64 171 JEUKENS MICHEL 00:43:56 ....... ....... 28 ....... ....... ....... ....... ....... ....... ....... 772 00:04:24 13,66
65 342 HOEBREGS LAURENT 00:43:58 ....... 20 ....... ....... ....... ....... ....... ....... ....... ....... 768 00:04:24 13,65
66 841 WOYAFFE NOEL 00:44:00 ....... 21 ....... ....... ....... ....... ....... ....... ....... ....... 764 00:04:24 13,64
67 886 LAMBOTTE SEBASTIEN 00:44:12 ....... ....... 29 ....... ....... ....... ....... ....... ....... ....... 761 00:04:25 13,57
68 965 GORISSEN PETER 00:44:23 ....... ....... ....... ....... 3 ....... ....... ....... ....... ....... 757 MAASRUNNERS 00:04:26 13,52
69 294 RULENCE LUDOVIC 00:44:25 ....... 22 ....... ....... ....... ....... ....... ....... ....... ....... 754 00:04:26 13,51
70 115 ESTERS PAUL 00:44:26 ....... ....... ....... ....... 4 ....... ....... ....... ....... ....... 750 ATLA LANAKEN 00:04:27 13,50
71 340 TOURBACH GEOFFRAY 00:44:29 ....... 23 ....... ....... ....... ....... ....... ....... ....... ....... 746 00:04:27 13,49
72 995 ANGE PHILIPPE 00:44:33 ....... 24 ....... ....... ....... ....... ....... ....... ....... ....... 743 00:04:27 13,47
73 911 THIESSEBS GERARD 00:44:34 ....... ....... ....... ....... 5 ....... ....... ....... ....... ....... 739 00:04:27 13,46
74 204 MARTIN JEAN-FRAN?OIS 00:44:36 ....... ....... 30 ....... ....... ....... ....... ....... ....... ....... 736 SER ATHL 00:04:28 13,45
75 1046 LENNERTS ERIC 00:44:42 ....... 25 ....... ....... ....... ....... ....... ....... ....... ....... 732 00:04:28 13,42
76 858 COLLIN NATHAN 00:44:44 ....... ....... ....... ....... ....... ....... ....... ....... ....... ....... 0 00:04:28 13,41
77 990 LHOEST VINCENT 00:44:47 ....... ....... 31 ....... ....... ....... ....... ....... ....... ....... 728 00:04:29 13,40
78 842 MAURISSEN HERVE 00:45:02 ....... ....... 32 ....... ....... ....... ....... ....... ....... ....... 725 TCBM 00:04:30 13,32
79 918 BOVY ALAIN 00:45:04 ....... ....... 33 ....... ....... ....... ....... ....... ....... ....... 721 OUPEYE ATHLETISME 00:04:30 13,31
80 956 HENSENNE BRUNO 00:45:09 ....... ....... 34 ....... ....... ....... ....... ....... ....... ....... 717 OUPEYE ATHLETISME 00:04:31 13,29
81 164 JAMIN DOMINIQUE 00:45:10 ....... 26 ....... ....... ....... ....... ....... ....... ....... ....... 714 RFCL 00:04:31 13,28
82 157 HERZET CLAUDE 00:45:13 ....... ....... ....... ....... 6 ....... ....... ....... ....... ....... 710 00:04:31 13,27
83 967 IDON JEAN MARC 00:45:32 ....... ....... 35 ....... ....... ....... ....... ....... ....... ....... 707 HST 00:04:33 13,18
84 988 CALDART FABIAN 00:45:56 ....... ....... 36 ....... ....... ....... ....... ....... ....... ....... 703 00:04:36 13,06
85 972 VANBRACKEN JEAN MARC 00:46:03 ....... ....... ....... 11 ....... ....... ....... ....... ....... ....... 699 00:04:36 13,03
86 371 BURNIAT OLIVIER 00:46:18 ....... 27 ....... ....... ....... ....... ....... ....... ....... ....... 696 00:04:38 12,96
87 356 MAROT BERNARD 00:46:19 ....... ....... ....... ....... 7 ....... ....... ....... ....... ....... 692 00:04:38 12,95
88 1045 ROZET DENIS 00:46:20 ....... ....... ....... 12 ....... ....... ....... ....... ....... ....... 688 00:04:38 12,95
89 177 LABAYE DOROTH?E 00:46:28 ....... ....... ....... ....... ....... ....... 2 ....... ....... ....... 685 JOG IN ATTITUDE 00:04:39 12,91
90 875 BYMENS NICOLAS 00:46:38 ....... ....... ....... ....... 8 ....... ....... ....... ....... ....... 681 00:04:40 12,87
91 377 LECOQ LOUISE 00:46:43 ....... ....... ....... ....... ....... 1 ....... ....... ....... ....... 678 JOG IN ATTITUDE 00:04:40 12,84
92 51 VANASCHEN VINCENT 00:46:45 ....... ....... 37 ....... ....... ....... ....... ....... ....... ....... 674 00:04:41 12,83
93 93 DEPIREUX ERIC 00:46:57 ....... ....... 38 ....... ....... ....... ....... ....... ....... ....... 670 00:04:42 12,78
94 873 MARINO GIOVANNI 00:47:03 ....... ....... ....... 13 ....... ....... ....... ....... ....... ....... 667 SERUNNERS 00:04:42 12,75
95 994 GASPER CLAUDE 00:47:07 ....... 28 ....... ....... ....... ....... ....... ....... ....... ....... 663 00:04:43 12,73
96 14 BATTISTINI LUCIANO 00:47:10 ....... ....... ....... 14 ....... ....... ....... ....... ....... ....... 659 00:04:43 12,72
97 162 IMMERIX JEAN PIERRE 00:47:18 ....... ....... ....... ....... 9 ....... ....... ....... ....... ....... 656 BJC 00:04:44 12,68
98 283 MENNICKEN ROGER 00:47:20 ....... ....... ....... 15 ....... ....... ....... ....... ....... ....... 652 EYNATTEN 00:04:44 12,68
99 355 JANS J PIERRE 00:47:25 ....... ....... ....... ....... 10 ....... ....... ....... ....... ....... 649 00:04:45 12,65
100 57 CLAES MATHILDE 00:47:25 ....... ....... ....... ....... ....... 2 ....... ....... ....... ....... 645 AC VISE 00:04:45 12,65
101 58 CLAES LAURENT 00:47:27 ....... ....... 39 ....... ....... ....... ....... ....... ....... ....... 641 CAVE QUI COURT 00:04:45 12,64
102 952 DIOM ROGER 00:47:28 ....... ....... ....... 16 ....... ....... ....... ....... ....... ....... 638 00:04:45 12,64
103 241 POULIART MICHAEL 00:47:32 ....... ....... 40 ....... ....... ....... ....... ....... ....... ....... 634 00:04:45 12,62
104 941 VARDAGA KEVIN 00:47:33 ....... 29 ....... ....... ....... ....... ....... ....... ....... ....... 630 00:04:45 12,62
105 982 VANDEVENNE CHRISTIAN 00:47:37 ....... ....... ....... ....... 11 ....... ....... ....... ....... ....... 627 TCBM 00:04:46 12,60
106 854 LOGNOUL JOHANN 00:47:39 ....... 30 ....... ....... ....... ....... ....... ....... ....... ....... 623 OUPEYE ATHLETISME 00:04:46 12,59
107 958 CULOT CHRISTIAN 00:47:41 ....... ....... 41 ....... ....... ....... ....... ....... ....... ....... 620 00:04:46 12,58
108 980 LUYCKX CHRISTOPHE 00:47:46 ....... 31 ....... ....... ....... ....... ....... ....... ....... ....... 616 HST 00:04:47 12,56
109 359 MONBALLIN LOIC 00:47:58 ....... 32 ....... ....... ....... ....... ....... ....... ....... ....... 612 RFCL 00:04:48 12,51
110 76 CULOT JEAN-YVES 00:47:59 ....... ....... 42 ....... ....... ....... ....... ....... ....... ....... 609 00:04:48 12,50
111 912 GIGLIO GASPARE 00:48:12 ....... ....... ....... 17 ....... ....... ....... ....... ....... ....... 605 RFCL 00:04:49 12,45
112 993 LECOMTE LAURENT 00:48:13 5 ....... ....... ....... ....... ....... ....... ....... ....... ....... 601 00:04:49 12,44
113 29 BERTONI JOEL 00:48:18 ....... ....... ....... 18 ....... ....... ....... ....... ....... ....... 598 00:04:50 12,42
114 256 VAN DER HEYDEN ERIC 00:48:31 ....... ....... 43 ....... ....... ....... ....... ....... ....... ....... 594 00:04:51 12,37
115 193 LESSAIN ERIC 00:48:34 ....... ....... ....... 19 ....... ....... ....... ....... ....... ....... 591 00:04:51 12,35
116 908 AMORMINO ERIC 00:48:35 ....... ....... 44 ....... ....... ....... ....... ....... ....... ....... 587 00:04:52 12,35
117 240 PLOEMMEN PATRICK 00:48:42 ....... ....... 45 ....... ....... ....... ....... ....... ....... ....... 583 00:04:52 12,32
118 73 CREMER PATRICK 00:48:45 ....... ....... ....... 20 ....... ....... ....... ....... ....... ....... 580 FCHA HANNUT 00:04:52 12,31
119 1014 ETIENNE MAXIME 00:48:49 ....... 33 ....... ....... ....... ....... ....... ....... ....... ....... 576 00:04:53 12,29
120 922 MARTINEZ AMELIA 00:49:01 ....... ....... ....... ....... ....... ....... 3 ....... ....... ....... 572 HST 00:04:54 12,24
121 354 VANARDOIS OLIVIER 00:49:08 ....... 34 ....... ....... ....... ....... ....... ....... ....... ....... 569 00:04:55 12,21
122 929 FLAS MATHILDE 00:49:12 ....... ....... ....... ....... ....... 3 ....... ....... ....... ....... 565 TCBM 00:04:55 12,20
123 84 DARCIS JOEL 00:49:20 ....... 35 ....... ....... ....... ....... ....... ....... ....... ....... 562 RDV RUN 00:04:56 12,16
124 210 RASQUIN DIDIER 00:49:24 ....... ....... 46 ....... ....... ....... ....... ....... ....... ....... 558 HST 00:04:56 12,15
125 227 NIKAS YANNI 00:49:27 ....... ....... ....... 21 ....... ....... ....... ....... ....... ....... 554 RDV RUN 00:04:57 12,13
126 1005 STALS OLIVIER 00:49:31 ....... ....... 47 ....... ....... ....... ....... ....... ....... ....... 551 00:04:57 12,12
127 1018 BELLERY NICOLAS 00:49:32 ....... 36 ....... ....... ....... ....... ....... ....... ....... ....... 547 00:04:57 12,11
128 907 PAPICCIO ERIC 00:49:35 ....... ....... 48 ....... ....... ....... ....... ....... ....... ....... 543 00:04:58 12,10
129 924 TRUS FABIAN 00:49:36 ....... ....... 49 ....... ....... ....... ....... ....... ....... ....... 540 00:04:58 12,10
130 917 VAN HOVE DELPHINE 00:49:37 ....... ....... ....... ....... ....... ....... 4 ....... ....... ....... 536 JOG IN ATTITUDE 00:04:58 12,09
131 1010 LECLER ALEXANDRE 00:49:41 ....... 37 ....... ....... ....... ....... ....... ....... ....... ....... 533 00:04:58 12,08
132 1012 ARNONE OLIVIER 00:49:43 ....... 38 ....... ....... ....... ....... ....... ....... ....... ....... 529 00:04:58 12,07
133 165 JAMIN PHILIPPE 00:49:44 ....... 39 ....... ....... ....... ....... ....... ....... ....... ....... 525 JOG IN ATTITUDE 00:04:58 12,06
134 176 KROPKA JONATHAN 00:50:03 ....... 40 ....... ....... ....... ....... ....... ....... ....... ....... 522 00:05:00 11,99
135 1009 MALPAS LUC 00:50:09 ....... ....... 50 ....... ....... ....... ....... ....... ....... ....... 518 JUPRELLE JOGGING 00:05:01 11,96
136 1023 BELLEFLAMME SERGE 00:50:17 ....... ....... ....... 22 ....... ....... ....... ....... ....... ....... 514 00:05:02 11,93
137 221 ROZET MATHILDE 00:50:25 ....... ....... ....... ....... ....... 4 ....... ....... ....... ....... 511 RFCL 00:05:03 11,90
138 869 BONHOMME JEROME 00:50:30 ....... 41 ....... ....... ....... ....... ....... ....... ....... ....... 507 00:05:03 11,88
139 334 MLOTKOSWKI STANISLAW 00:50:31 ....... ....... ....... 23 ....... ....... ....... ....... ....... ....... 504 JUPRELLE JOGGING 00:05:03 11,88
140 939 HABETS ROB 00:50:44 ....... ....... ....... 24 ....... ....... ....... ....... ....... ....... 500 MAASRUNNERS EIJSDEN 00:05:04 11,83
141 1017 DUPONT DOMINIQUE 00:50:47 ....... ....... 51 ....... ....... ....... ....... ....... ....... ....... 496 00:05:05 11,81
142 160 HONORE ALAIN 00:50:50 ....... ....... 52 ....... ....... ....... ....... ....... ....... ....... 493 00:05:05 11,80
143 909 LUNETTA ALDO 00:50:52 ....... ....... 53 ....... ....... ....... ....... ....... ....... ....... 489 00:05:05 11,80
144 280 DERWAE DIDIER 00:50:53 ....... ....... 54 ....... ....... ....... ....... ....... ....... ....... 486 00:05:05 11,79
145 104 D HOEY CHRISTIAN 00:51:01 ....... ....... ....... ....... 12 ....... ....... ....... ....... ....... 482 00:05:06 11,76
146 376 CUTALA ALEXANDRE 00:51:03 ....... 42 ....... ....... ....... ....... ....... ....... ....... ....... 478 FN06 00:05:06 11,75
147 214 MI?VIS KEVIN 00:51:06 ....... 43 ....... ....... ....... ....... ....... ....... ....... ....... 475 RFCL 00:05:07 11,74
148 6 BAILLY LUC 00:51:07 ....... ....... ....... 25 ....... ....... ....... ....... ....... ....... 471 RFCL 00:05:07 11,74
149 935 DUVIVIER MARC 00:51:14 ....... ....... ....... 26 ....... ....... ....... ....... ....... ....... 467 00:05:07 11,71
150 1043 VIZLI TOM 00:51:15 ....... 44 ....... ....... ....... ....... ....... ....... ....... ....... 464 00:05:07 11,71
151 832 MOUSSAID ZAHIRA 00:51:17 ....... ....... ....... ....... ....... ....... ....... 1 ....... ....... 460 00:05:08 11,70
152 27 BERG NICOLAS 00:51:18 ....... ....... ....... 27 ....... ....... ....... ....... ....... ....... 457 00:05:08 11,70
153 981 CASTELLANO JOSE 00:51:20 ....... ....... 55 ....... ....... ....... ....... ....... ....... ....... 453 00:05:08 11,69
154 46 BRIXHE LIONEL 00:51:22 ....... 45 ....... ....... ....... ....... ....... ....... ....... ....... 449 00:05:08 11,68
155 271 WARLAND ANDRE 00:51:23 ....... ....... ....... 28 ....... ....... ....... ....... ....... ....... 446 00:05:08 11,68
156 295 SAGGIORATO LUIGI 00:51:28 ....... ....... ....... ....... 13 ....... ....... ....... ....... ....... 442 SERUNNERS 00:05:09 11,66
157 109 DOYEN HUBERT 00:51:29 ....... ....... ....... ....... 14 ....... ....... ....... ....... ....... 438 00:05:09 11,65
158 812 GEUDENS XAVIER 00:51:37 ....... ....... 56 ....... ....... ....... ....... ....... ....... ....... 435 00:05:10 11,62
159 330 BASTIAENSEN RENE 00:51:41 ....... ....... ....... ....... 15 ....... ....... ....... ....... ....... 431 00:05:10 11,61
160 985 PETERS MICHEL 00:51:44 ....... ....... 57 ....... ....... ....... ....... ....... ....... ....... 428 00:05:10 11,60
161 1048 DELVAUX MANU 00:51:45 ....... ....... 58 ....... ....... ....... ....... ....... ....... ....... 424 HACCOURT SANTE 00:05:11 11,59
162 957 SPINOSA ANTHONY 00:51:50 ....... 46 ....... ....... ....... ....... ....... ....... ....... ....... 420 00:05:11 11,58
163 928 SPINOSA MELISSA 00:51:52 ....... ....... ....... ....... ....... ....... 5 ....... ....... ....... 417 00:05:11 11,57
164 973 WERGIFOSSE JACKY 00:51:54 ....... ....... ....... ....... 16 ....... ....... ....... ....... ....... 413 00:05:11 11,56
165 248 TIMMERMANS DAMIEN 00:51:54 ....... 47 ....... ....... ....... ....... ....... ....... ....... ....... 409 00:05:11 11,56
166 272 WESPHAEL BORIS 00:51:55 ....... 48 ....... ....... ....... ....... ....... ....... ....... ....... 406 00:05:12 11,56
167 970 PAQUE OLIVIER 00:51:57 ....... ....... ....... 29 ....... ....... ....... ....... ....... ....... 402 00:05:12 11,55
168 351 PHILIPPART YVAN 00:52:06 ....... ....... 59 ....... ....... ....... ....... ....... ....... ....... 399 00:05:13 11,52
169 192 LEROY CAROL 00:52:10 ....... ....... ....... ....... ....... ....... ....... ....... 1 ....... 395 JOG IN ATTITUDE 00:05:13 11,50
170 983 LONGUEVILLE JEAN LOUIS 00:52:12 ....... ....... ....... 30 ....... ....... ....... ....... ....... ....... 391 RFCL 00:05:13 11,49
171 944 HERBEN GUY 00:52:21 ....... ....... ....... ....... 17 ....... ....... ....... ....... ....... 388 00:05:14 11,46
172 80 DALLA CORTE LUDOVIC 00:52:27 ....... 49 ....... ....... ....... ....... ....... ....... ....... ....... 384 00:05:15 11,44
173 879 MOUTI ZOUHAIR 00:52:35 ....... 50 ....... ....... ....... ....... ....... ....... ....... ....... 380 JOG IN ATTITUDE 00:05:16 11,41
174 30 BERTONI JENNY 00:52:38 ....... ....... ....... ....... ....... ....... ....... ....... 2 ....... 377 00:05:16 11,40
175 859 COLLIN MANON 00:52:41 ....... ....... ....... ....... ....... ....... 6 ....... ....... ....... 373 00:05:16 11,39
176 170 JEMINE XAVIER 00:52:49 ....... ....... 60 ....... ....... ....... ....... ....... ....... ....... 370 00:05:17 11,36
177 968 MEURIS BERNARD 00:52:50 ....... ....... 61 ....... ....... ....... ....... ....... ....... ....... 366 00:05:17 11,36
178 140 GOESSENS CLAUDINE 00:52:55 ....... ....... ....... ....... ....... ....... ....... ....... ....... 1 362 NEUPRE AC 00:05:17 11,34
179 940 AMILONE JEAN PIERRE 00:53:05 ....... ....... ....... 31 ....... ....... ....... ....... ....... ....... 359 HST HACCOURT 00:05:19 11,30
180 279 CLOSSET C?LINE 00:53:22 ....... ....... ....... ....... ....... ....... 7 ....... ....... ....... 355 RDV RUN 00:05:20 11,24
181 1079 SARDY MEDHI 00:53:23 ....... 51 ....... ....... ....... ....... ....... ....... ....... ....... 351 00:05:20 11,24
182 936 NULENS CHRISTIAN 00:53:24 ....... ....... 62 ....... ....... ....... ....... ....... ....... ....... 348 RTT 00:05:20 11,24
183 860 STERRUGGIA FRANCOIS 00:53:27 ....... ....... 63 ....... ....... ....... ....... ....... ....... ....... 344 00:05:21 11,23
184 806 PROFITA PIERRE 00:53:31 ....... 52 ....... ....... ....... ....... ....... ....... ....... ....... 341 00:05:21 11,21
185 188 LELOUP DOMINIQUE 00:53:34 ....... ....... ....... ....... ....... ....... ....... 2 ....... ....... 337 00:05:21 11,20
186 885 NYSSEN ALAIN 00:53:35 ....... ....... 64 ....... ....... ....... ....... ....... ....... ....... 333 BAC 00:05:22 11,20
187 1075 GILLARD JEAN FRANCOIS 00:53:42 ....... ....... 65 ....... ....... ....... ....... ....... ....... ....... 330 HACCOURT SANTE 00:05:22 11,17
188 172 KALIN THIERRY 00:53:43 ....... ....... 66 ....... ....... ....... ....... ....... ....... ....... 326 00:05:22 11,17
189 219 ROBERTI HENRI 00:53:44 ....... ....... ....... ....... 18 ....... ....... ....... ....... ....... 322 AMC 00:05:22 11,17
190 113 EGGEN REN 00:53:47 ....... ....... ....... ....... 19 ....... ....... ....... ....... ....... 319 00:05:23 11,16
191 971 DEMOLIN DIANE 00:53:48 ....... ....... ....... ....... ....... ....... ....... 3 ....... ....... 315 EUH1 RUNNERTEAM 00:05:23 11,15
192 850 ARCHAMBEAU ROGER 00:53:56 ....... ....... ....... ....... 20 ....... ....... ....... ....... ....... 312 00:05:24 11,12
193 146 HADJIDIMITRIOU STELIO 00:53:58 ....... ....... ....... 32 ....... ....... ....... ....... ....... ....... 308 JCHERSTAL 00:05:24 11,12
194 919 DIRICKS MICKAEL 00:54:16 ....... 53 ....... ....... ....... ....... ....... ....... ....... ....... 304 00:05:26 11,06
195 992 DERKENNE MEGHAN 00:54:28 ....... ....... ....... ....... ....... 5 ....... ....... ....... ....... 301 00:05:27 11,02
196 1041 ERNEST BERT 00:54:38 ....... ....... ....... 33 ....... ....... ....... ....... ....... ....... 297 00:05:28 10,98
197 231 PAROTTE SIMONE 00:54:55 ....... ....... ....... ....... ....... ....... ....... ....... ....... 2 293 00:05:30 10,93
198 300 SOLER TONY 00:55:01 ....... ....... 67 ....... ....... ....... ....... ....... ....... ....... 290 RUNNING SOUMAGNE 00:05:30 10,91
199 976 RASIER AURELIE 00:55:07 ....... ....... ....... ....... ....... ....... 8 ....... ....... ....... 286 00:05:31 10,89
200 35 BOISSY DENIS 00:55:15 ....... ....... 68 ....... ....... ....... ....... ....... ....... ....... 283 00:05:31 10,86
201 1013 LECONTE CASSANDRA 00:55:26 ....... ....... ....... ....... ....... ....... 9 ....... ....... ....... 279 00:05:33 10,82
202 117 FALLA ANAIS 00:55:50 ....... ....... ....... ....... ....... ....... ....... ....... ....... ....... 0 RDV RUN 00:05:35 10,75
203 152 HENRY MARIE-JENNIFER 00:55:51 ....... ....... ....... ....... ....... ....... ....... 4 ....... ....... 275 RDV RUN 00:05:35 10,74
204 89 DECHAMPS BRIAN 00:56:42 ....... 54 ....... ....... ....... ....... ....... ....... ....... ....... 272 00:05:40 10,58
205 1047 RADEMAKER MARTINE 00:56:46 ....... ....... ....... ....... ....... ....... ....... 5 ....... ....... 268 OUPEYE ATHLETISME 00:05:41 10,57
206 962 FONTONETE DANIEL 00:56:48 ....... 55 ....... ....... ....... ....... ....... ....... ....... ....... 264 00:05:41 10,56
207 1007 RUZZICOMI MARCO 00:56:49 ....... 56 ....... ....... ....... ....... ....... ....... ....... ....... 261 EURO DIESEL 00:05:41 10,56
208 327 FETRO ELVIS 00:56:55 ....... ....... ....... 34 ....... ....... ....... ....... ....... ....... 257 LES ROTHEUS 00:05:41 10,54
209 258 VAN LAAR CHRISTINE 00:56:57 ....... ....... ....... ....... ....... ....... ....... 6 ....... ....... 254 L AVENIR 00:05:42 10,54
210 977 PAQUES NATHALIE 00:57:09 ....... ....... ....... ....... ....... ....... ....... 7 ....... ....... 250 WAC 00:05:43 10,50
211 978 DENOEL PHILIPPE 00:57:11 ....... ....... 69 ....... ....... ....... ....... ....... ....... ....... 246 WAC 00:05:43 10,49
212 313 PERFETTO ELISA 00:57:15 ....... ....... ....... ....... ....... ....... ....... ....... ....... 3 243 00:05:44 10,48
213 13 PANARIELLO FABIAN 00:57:16 ....... 57 ....... ....... ....... ....... ....... ....... ....... ....... 239 00:05:44 10,48
214 1044 BONNET VALERIE 00:57:17 ....... ....... ....... ....... ....... ....... ....... 8 ....... ....... 236 JOG IN ATITUDE 00:05:44 10,47
215 64 COMITO LAURA 00:57:25 ....... ....... ....... ....... ....... ....... 10 ....... ....... ....... 232 RFCL ROAD RUNNER 00:05:45 10,45
216 1000 MEREY BILL 00:57:47 ....... 58 ....... ....... ....... ....... ....... ....... ....... ....... 228 00:05:47 10,38
217 26 BERNKENS SABINE 00:57:52 ....... ....... ....... ....... ....... ....... ....... ....... 3 ....... 225 JOG IN ATTITUDE 00:05:47 10,37
218 52 CANNELLA GIOVANNI 00:57:53 ....... ....... 70 ....... ....... ....... ....... ....... ....... ....... 221 JOG IN ATTITUDE 00:05:47 10,37
219 1076 VERMEIREN CHRISTOPHE 00:58:07 ....... ....... 71 ....... ....... ....... ....... ....... ....... ....... 217 00:05:49 10,32
220 150 HAVARD VERONIQUE 00:58:20 ....... ....... ....... ....... ....... ....... ....... 9 ....... ....... 214 FNJC 00:05:50 10,29
221 898 ROOSEN EMILIE 00:58:28 ....... ....... ....... ....... ....... ....... ....... ....... 4 ....... 210 JCPMF 00:05:51 10,26
222 1051 OTTO VINCENT 00:58:30 ....... 59 ....... ....... ....... ....... ....... ....... ....... ....... 207 00:05:51 10,26
223 281 RAMAKERS SEBASTIEN 00:58:35 ....... 60 ....... ....... ....... ....... ....... ....... ....... ....... 203 00:05:51 10,24
224 129 GALANTE LAURA 00:58:36 ....... ....... ....... ....... ....... ....... 11 ....... ....... ....... 199 00:05:52 10,24
225 969 HEENS YANNICK 00:58:38 ....... 61 ....... ....... ....... ....... ....... ....... ....... ....... 196 00:05:52 10,23
226 1019 HENDRICK HENRI 00:58:45 ....... 62 ....... ....... ....... ....... ....... ....... ....... ....... 192 00:05:53 10,21
227 856 FLEMAL PIERRE 00:58:51 ....... ....... ....... 35 ....... ....... ....... ....... ....... ....... 188 JOGGING JUPRELLE 00:05:53 10,20
228 107 DIO LILLO 00:59:17 ....... 63 ....... ....... ....... ....... ....... ....... ....... ....... 185 JOG IN ATTITUDE 00:05:56 10,12
229 225 NIHANT CORALIE 00:59:37 ....... ....... ....... ....... ....... ....... 12 ....... ....... ....... 181 FNJC 00:05:58 10,06
230 230 ORBAN MICHELE 00:59:45 ....... ....... ....... ....... ....... ....... ....... 10 ....... ....... 178 00:05:58 10,04
231 4 BABE MICHEL 01:00:01 ....... ....... ....... 36 ....... ....... ....... ....... ....... ....... 174 LES ROTHEU 00:06:00 10,00
232 1077 CORTES JOSEPHINE 01:00:06 ....... ....... ....... ....... ....... ....... 13 ....... ....... ....... 170 00:06:01 9,98
233 955 FRYNS GILBERT 01:00:21 ....... ....... ....... ....... 21 ....... ....... ....... ....... ....... 167 LOVEMIR 00:06:02 9,94
234 882 LIBERT CARL 01:00:25 ....... ....... ....... 37 ....... ....... ....... ....... ....... ....... 163 MPW HJM 00:06:02 9,93
235 881 GUARINO TONY 01:00:27 ....... ....... ....... ....... 22 ....... ....... ....... ....... ....... 159 MPW HJM 00:06:03 9,93
236 1071 GRENSON VERONIQUE 01:00:37 ....... ....... ....... ....... ....... ....... ....... ....... 5 ....... 156 JCPMF 00:06:04 9,90
237 950 LOUVRIER JEAN FRANCOIS 01:00:47 ....... ....... 72 ....... ....... ....... ....... ....... ....... ....... 152 HST 00:06:05 9,87
238 954 BRONBART AUDREY 01:00:58 ....... ....... ....... ....... ....... ....... 14 ....... ....... ....... 149 HST HACCOURT 00:06:06 9,84
239 960 DENOEL ESTEL 01:01:20 ....... ....... 73 ....... ....... ....... ....... ....... ....... ....... 145 SOUMAGNE 00:06:08 9,78
240 1004 GILLOT JEAN MARC 01:01:57 ....... ....... ....... 38 ....... ....... ....... ....... ....... ....... 141 EUH1 TEAM RUNNERS 00:06:12 9,69
241 840 NINANE JEAN PIERRE 01:02:34 ....... ....... ....... ....... 23 ....... ....... ....... ....... ....... 138 00:06:15 9,59
242 959 GENOT OLIVIER 01:02:38 ....... ....... 74 ....... ....... ....... ....... ....... ....... ....... 134 SOUMAGNE 00:06:16 9,58
243 997 MAKA MAVRIC 01:03:04 6 ....... ....... ....... ....... ....... ....... ....... ....... ....... 130 RCA SPA 00:06:18 9,51
244 996 MANCINONE ANTHONY 01:03:05 ....... 64 ....... ....... ....... ....... ....... ....... ....... ....... 127 00:06:18 9,51
245 1049 RUTILO MICHAEL 01:03:09 ....... 65 ....... ....... ....... ....... ....... ....... ....... ....... 123 00:06:19 9,50
246 975 RASIER VIRGINIE 01:03:17 ....... ....... ....... ....... ....... ....... 15 ....... ....... ....... 120 00:06:20 9,48
247 974 RASIER JEAN MARIE 01:03:18 ....... ....... ....... ....... 24 ....... ....... ....... ....... ....... 116 00:06:20 9,48
248 925 THYS MICHAEL 01:03:45 ....... ....... 75 ....... ....... ....... ....... ....... ....... ....... 112 00:06:22 9,41
249 949 RAHIER SYLVIE 01:03:59 ....... ....... ....... ....... ....... ....... ....... 11 ....... ....... 109 HACCOURT SANTE 00:06:24 9,38
250 232 PERPETE ANNE-MARIE 01:04:12 ....... ....... ....... ....... ....... ....... ....... ....... ....... 4 105 RFCL ROAD RUNNERS 00:06:25 9,35
251 884 RENKEN JOCELYNE 01:04:22 ....... ....... ....... ....... ....... ....... ....... ....... ....... 5 101 HST 00:06:26 9,32
252 894 MECZKOWSKI STAN 01:04:34 ....... ....... ....... ....... 25 ....... ....... ....... ....... ....... 98 00:06:27 9,29
253 1024 BRONWERS VERONIQUE 01:04:48 ....... ....... ....... ....... ....... ....... ....... ....... 6 ....... 94 00:06:29 9,26
254 238 PIRONNET SANDRINE 01:05:03 ....... ....... ....... ....... ....... ....... 16 ....... ....... ....... 91 RUNASTOCK 00:06:30 9,22
255 1016 GRENSON CECILE 01:05:06 ....... 66 ....... ....... ....... ....... ....... ....... ....... ....... 87 JCPMF REMICOURT 00:06:31 9,22
256 991 CASTIGLIONE VALERIO 01:05:12 ....... ....... 76 ....... ....... ....... ....... ....... ....... ....... 83 ARDOC 00:06:31 9,20
257 50 CALIFICE HUBERTE 01:05:21 ....... ....... ....... ....... ....... ....... ....... ....... ....... 6 80 L AVENIR VERVIERS 00:06:32 9,18
258 979 MUTILO ROSETTA 01:05:35 ....... ....... ....... ....... ....... ....... ....... ....... 7 ....... 76 00:06:33 9,15
259 989 CASILLAS CHRISTOPHE 01:05:40 ....... 67 ....... ....... ....... ....... ....... ....... ....... ....... 72 00:06:34 9,14
260 297 SIMONIS JOELLE 01:05:59 ....... ....... ....... ....... ....... ....... ....... 12 ....... ....... 69 RDV RUN 00:06:36 9,09
261 948 BELLERY THOMAS 01:06:39 ....... 68 ....... ....... ....... ....... ....... ....... ....... ....... 65 00:06:40 9,00
262 938 FRISSCHEN JACQUES 01:07:05 ....... ....... ....... ....... 26 ....... ....... ....... ....... ....... 62 CHALLENGE VERVIERS 00:06:42 8,94
263 947 BELLERY JULIE 01:07:06 ....... ....... ....... ....... ....... ....... 17 ....... ....... ....... 58 00:06:43 8,94
264 943 GRETRY REGINE 01:07:25 ....... ....... ....... ....... ....... ....... ....... ....... 8 ....... 54 HST HACCOURT 00:06:45 8,90
265 901 DE ROOS ANNIE 01:07:33 ....... ....... ....... ....... ....... ....... ....... 13 ....... ....... 51 HST 00:06:45 8,88
266 900 DE FROIDMONT ANNE 01:07:39 ....... ....... ....... ....... ....... ....... ....... 14 ....... ....... 47 HST 00:06:46 8,87
267 963 WOLFS MARIE 01:07:45 ....... ....... ....... ....... ....... ....... ....... ....... ....... 7 43 HACCOURT 00:06:46 8,86
268 891 DARCIS BARBARA 01:07:48 ....... ....... ....... ....... ....... ....... 18 ....... ....... ....... 40 HST 00:06:47 8,85
269 986 NOLMANS MAURICE 01:08:00 ....... ....... ....... ....... 27 ....... ....... ....... ....... ....... 36 HST HACCOURT 00:06:48 8,82
270 94 DEPREITEIRE HILDEGARD 01:08:06 ....... ....... ....... ....... ....... ....... ....... ....... ....... 8 33 L AVENIR 00:06:49 8,81
271 1001 MAGNEE VIRGINIE 01:08:22 ....... ....... ....... ....... ....... ....... 19 ....... ....... ....... 29 00:06:50 8,78
272 368 DURWAEL JEAN CLAUDE 01:08:44 ....... ....... ....... ....... 28 ....... ....... ....... ....... ....... 25 MPW 00:06:52 8,73
273 1052 LEONARD AUDREY 01:08:49 ....... ....... ....... ....... ....... ....... 20 ....... ....... ....... 22 00:06:53 8,72
274 259 VAN LAAR MARILYNE 01:10:11 ....... ....... ....... ....... ....... ....... 21 ....... ....... ....... 18 00:07:01 8,55
275 998 MAGNEE GERALD 01:12:04 ....... ....... ....... 39 ....... ....... ....... ....... ....... ....... 14 00:07:12 8,33
276 933 NULLENS SUZANNE 01:13:06 ....... ....... ....... ....... ....... ....... ....... ....... ....... 9 11 00:07:19 8,21
277 966 HEENS DESIRE 01:14:36 ....... ....... ....... 40 ....... ....... ....... ....... ....... ....... 7 00:07:28 8,04
278 921 GEORGES GEOFFROY 01:15:45 ....... 69 ....... ....... ....... ....... ....... ....... ....... ....... 4 00:07:34 7,92